Time,TemperatureF,DewpointF,PressureIn,WindDirection,WindDirectionDegrees,WindSpeedMPH,WindSpeedGustMPH,Humidity,HourlyPrecipIn,Conditions,Clouds,dailyrainin,SolarRadiationWatts/m^2,SoftwareType,DateUTC
2013-03-07 00:02:00,33.0,27.0,-100.00,SSE,162,0.0,4.0,78,0.00,,,0.00,0.000000,,2013-03-07 05:02:00,
2013-03-07 00:32:00,33.0,27.0,-100.00,SE,125,0.0,0.0,79,0.00,,,0.00,0.000000,,2013-03-07 05:32:00,
2013-03-07 00:42:00,33.0,27.0,-100.00,SE,125,0.0,0.0,79,0.00,,,0.00,0.000000,,2013-03-07 05:42:00,
2013-03-07 00:52:00,33.0,27.0,-100.00,SE,125,0.0,0.0,79,0.00,,,0.00,0.000000,,2013-03-07 05:52:00,
2013-03-07 01:02:00,33.0,27.0,-100.00,SE,125,0.0,0.0,79,0.00,,,0.00,0.000000,,2013-03-07 06:02:00,
2013-03-07 01:32:00,32.0,27.0,-100.00,SSW,199,0.0,0.0,83,0.00,,,0.00,0.000000,,2013-03-07 06:32:00,
2013-03-07 01:42:00,32.0,27.0,-100.00,SSW,199,0.0,0.0,83,0.00,,,0.00,0.000000,,2013-03-07 06:42:00,
2013-03-07 01:52:00,32.0,27.0,-100.00,SSW,199,0.0,0.0,83,0.00,,,0.00,0.000000,,2013-03-07 06:52:00,
2013-03-07 02:01:00,32.0,27.0,-100.00,SSW,199,0.0,0.0,83,0.00,,,0.00,0.000000,,2013-03-07 07:01:00,
2013-03-07 02:32:00,32.0,28.0,-100.00,East,99,0.0,2.0,85,0.00,,,0.00,0.000000,,2013-03-07 07:32:00,
2013-03-07 02:43:00,32.0,28.0,-100.00,East,99,0.0,2.0,85,0.00,,,0.00,0.000000,,2013-03-07 07:43:00,
2013-03-07 02:53:00,32.0,28.0,-100.00,East,99,0.0,2.0,85,0.00,,,0.00,0.000000,,2013-03-07 07:53:00,
2013-03-07 03:34:00,31.0,28.0,-100.00,WSW,253,0.0,0.0,90,0.00,,,0.00,0.000000,,2013-03-07 08:34:00,
2013-03-07 03:45:00,31.0,28.0,-100.00,WSW,253,0.0,0.0,90,0.00,,,0.00,0.000000,,2013-03-07 08:45:00,
2013-03-07 03:54:00,31.0,28.0,-100.00,WSW,253,0.0,0.0,90,0.00,,,0.00,0.000000,,2013-03-07 08:54:00,
2013-03-07 04:03:00,31.0,28.0,-100.00,WSW,253,0.0,0.0,90,0.00,,,0.00,0.000000,,2013-03-07 09:03:00,
2013-03-07 04:33:00,31.0,28.0,-100.00,NNE,33,1.0,4.0,87,0.00,,,0.00,0.000000,,2013-03-07 09:33:00,
2013-03-07 04:43:00,31.0,28.0,-100.00,NNE,33,1.0,4.0,87,0.00,,,0.00,0.000000,,2013-03-07 09:43:00,
2013-03-07 04:53:00,31.0,28.0,-100.00,NNE,33,1.0,4.0,87,0.00,,,0.00,0.000000,,2013-03-07 09:53:00,
2013-03-07 05:04:00,31.0,28.0,-100.00,NNE,33,1.0,4.0,87,0.00,,,0.00,0.000000,,2013-03-07 10:04:00,
2013-03-07 05:33:00,31.0,28.0,-100.00,NE,51,1.0,5.0,88,0.00,,,0.00,0.000000,,2013-03-07 10:33:00,
2013-03-07 05:43:00,31.0,28.0,-100.00,NE,51,1.0,5.0,88,0.00,,,0.00,0.000000,,2013-03-07 10:43:00,
2013-03-07 05:53:00,31.0,28.0,-100.00,NE,51,1.0,5.0,88,0.00,,,0.00,0.000000,,2013-03-07 10:53:00,
2013-03-07 06:03:00,31.0,28.0,-100.00,NE,51,1.0,5.0,88,0.00,,,0.00,0.000000,,2013-03-07 11:03:00,
2013-03-07 06:34:00,30.0,27.0,-100.00,West,271,0.0,3.0,90,0.00,,,0.00,0.000000,,2013-03-07 11:34:00,
2013-03-07 06:44:00,30.0,27.0,-100.00,West,271,0.0,3.0,90,0.00,,,0.00,0.000000,,2013-03-07 11:44:00,
2013-03-07 06:55:00,30.0,27.0,-100.00,West,271,0.0,3.0,90,0.00,,,0.00,0.000000,,2013-03-07 11:55:00,
2013-03-07 07:04:00,30.0,27.0,-100.00,West,271,0.0,3.0,90,0.00,,,0.00,0.000000,,2013-03-07 12:04:00,
2013-03-07 07:34:00,31.0,29.0,-100.00,NNW,334,2.0,5.0,91,0.00,,,0.00,4.000000,,2013-03-07 12:34:00,
2013-03-07 07:43:00,31.0,29.0,-100.00,NNW,334,2.0,5.0,91,0.00,,,0.00,4.000000,,2013-03-07 12:43:00,
2013-03-07 07:53:00,31.0,29.0,-100.00,NNW,334,2.0,5.0,91,0.00,,,0.00,4.000000,,2013-03-07 12:53:00,
2013-03-07 08:03:00,31.0,29.0,-100.00,NNW,334,2.0,5.0,91,0.00,,,0.00,4.000000,,2013-03-07 13:03:00,
2013-03-07 09:34:00,33.0,30.0,-100.00,NNW,332,4.0,10.0,87,-99.99,,,0.00,91.000000,,2013-03-07 14:34:00,
2013-03-07 09:43:00,33.0,30.0,-100.00,NNW,332,4.0,10.0,87,-99.99,,,0.00,91.000000,,2013-03-07 14:43:00,
2013-03-07 09:54:00,33.0,30.0,-100.00,NNW,332,4.0,10.0,87,-99.99,,,0.00,91.000000,,2013-03-07 14:54:00,
2013-03-07 10:03:00,33.0,30.0,-100.00,NNW,332,4.0,10.0,87,-99.99,,,0.00,91.000000,,2013-03-07 15:03:00,
2013-03-07 10:33:00,35.0,30.0,-100.00,NNW,329,4.0,8.0,82,0.00,,,0.00,116.000000,,2013-03-07 15:33:00,
2013-03-07 10:43:00,35.0,30.0,-100.00,NNW,329,4.0,8.0,82,0.00,,,0.00,116.000000,,2013-03-07 15:43:00,
2013-03-07 10:53:00,35.0,30.0,-100.00,NNW,329,4.0,8.0,82,0.00,,,0.00,116.000000,,2013-03-07 15:53:00,
2013-03-07 11:02:00,35.0,30.0,-100.00,NNW,329,4.0,8.0,82,0.00,,,0.00,116.000000,,2013-03-07 16:02:00,
2013-03-07 11:33:00,34.0,29.0,-100.00,NNW,329,6.0,11.0,82,0.00,,,0.00,117.000000,,2013-03-07 16:33:00,
2013-03-07 11:43:00,34.0,29.0,-100.00,NNW,329,6.0,11.0,82,0.00,,,0.00,117.000000,,2013-03-07 16:43:00,
2013-03-07 11:53:00,34.0,29.0,-100.00,NNW,329,6.0,11.0,82,0.00,,,0.00,117.000000,,2013-03-07 16:53:00,
2013-03-07 12:03:00,34.0,29.0,-100.00,NNW,329,6.0,11.0,82,0.00,,,0.00,117.000000,,2013-03-07 17:03:00,
2013-03-07 12:34:00,36.0,29.0,-100.00,NNW,327,6.0,12.0,76,0.00,,,0.00,200.000000,,2013-03-07 17:34:00,
2013-03-07 12:44:00,36.0,29.0,-100.00,NNW,327,6.0,12.0,76,0.00,,,0.00,200.000000,,2013-03-07 17:44:00,
2013-03-07 12:55:00,36.0,29.0,-100.00,NNW,327,6.0,12.0,76,0.00,,,0.00,200.000000,,2013-03-07 17:55:00,
2013-03-07 13:04:00,36.0,29.0,-100.00,NNW,327,6.0,12.0,76,0.00,,,0.00,200.000000,,2013-03-07 18:04:00,
2013-03-07 13:33:00,35.0,29.0,-100.00,NW,317,6.0,11.0,77,0.00,,,0.00,163.000000,,2013-03-07 18:33:00,
2013-03-07 13:43:00,35.0,29.0,-100.00,NW,317,6.0,11.0,77,0.00,,,0.00,163.000000,,2013-03-07 18:43:00,
2013-03-07 13:53:00,35.0,29.0,-100.00,NW,317,6.0,11.0,77,0.00,,,0.00,163.000000,,2013-03-07 18:53:00,
2013-03-07 14:03:00,35.0,29.0,-100.00,NW,317,6.0,11.0,77,0.00,,,0.00,163.000000,,2013-03-07 19:03:00,
2013-03-07 14:35:00,34.0,29.0,-100.00,NW,304,4.0,13.0,81,0.00,,,0.00,120.000000,,2013-03-07 19:35:00,
2013-03-07 14:44:00,34.0,29.0,-100.00,NW,304,4.0,13.0,81,0.00,,,0.00,120.000000,,2013-03-07 19:44:00,
2013-03-07 14:53:00,34.0,29.0,-100.00,NW,304,4.0,13.0,81,0.00,,,0.00,120.000000,,2013-03-07 19:53:00,
2013-03-07 15:02:00,34.0,29.0,-100.00,NW,304,4.0,13.0,81,0.00,,,0.00,120.000000,,2013-03-07 20:02:00,
2013-03-07 15:34:00,34.0,29.0,-100.00,NW,312,4.0,12.0,81,0.00,,,0.00,68.000000,,2013-03-07 20:34:00,
2013-03-07 15:43:00,34.0,29.0,-100.00,NW,312,4.0,12.0,81,0.00,,,0.00,68.000000,,2013-03-07 20:43:00,
2013-03-07 15:54:00,34.0,29.0,-100.00,NW,312,4.0,12.0,81,0.00,,,0.00,68.000000,,2013-03-07 20:54:00,
2013-03-07 16:03:00,34.0,29.0,-100.00,NW,312,4.0,12.0,81,0.00,,,0.00,68.000000,,2013-03-07 21:03:00,
2013-03-07 16:43:00,34.0,28.0,-100.00,NW,313,4.0,10.0,79,0.00,,,0.00,61.000000,,2013-03-07 21:43:00,
2013-03-07 16:53:00,34.0,28.0,-100.00,NW,313,4.0,10.0,79,0.00,,,0.00,61.000000,,2013-03-07 21:53:00,
2013-03-07 17:02:00,34.0,28.0,-100.00,NW,313,4.0,10.0,79,0.00,,,0.00,61.000000,,2013-03-07 22:02:00,
2013-03-07 17:33:00,34.0,29.0,-100.00,NW,317,4.0,10.0,81,0.00,,,0.00,45.000000,,2013-03-07 22:33:00,
2013-03-07 17:43:00,34.0,29.0,-100.00,NW,317,4.0,10.0,81,0.00,,,0.00,45.000000,,2013-03-07 22:43:00,
2013-03-07 17:55:00,34.0,29.0,-100.00,NW,317,4.0,10.0,81,0.00,,,0.00,45.000000,,2013-03-07 22:55:00,
2013-03-07 18:03:00,34.0,29.0,-100.00,NW,317,4.0,10.0,81,0.00,,,0.00,45.000000,,2013-03-07 23:03:00,
2013-03-07 18:35:00,33.0,28.0,-100.00,NW,323,3.0,7.0,83,0.00,,,0.00,21.000000,,2013-03-07 23:35:00,
2013-03-07 18:44:00,33.0,28.0,-100.00,NW,323,3.0,7.0,83,0.00,,,0.00,21.000000,,2013-03-07 23:44:00,
2013-03-07 18:54:00,33.0,28.0,-100.00,NW,323,3.0,7.0,83,0.00,,,0.00,21.000000,,2013-03-07 23:54:00,
2013-03-07 19:04:00,33.0,28.0,-100.00,NW,323,3.0,7.0,83,0.00,,,0.00,21.000000,,2013-03-08 00:04:00,
2013-03-07 19:35:00,32.0,30.0,-100.00,NW,314,2.0,9.0,92,0.00,,,0.00,0.000000,,2013-03-08 00:35:00,
2013-03-07 19:44:00,32.0,30.0,-100.00,NW,314,2.0,9.0,92,0.00,,,0.00,0.000000,,2013-03-08 00:44:00,
2013-03-07 19:54:00,32.0,30.0,-100.00,NW,314,2.0,9.0,92,0.00,,,0.00,0.000000,,2013-03-08 00:54:00,
2013-03-07 20:02:00,32.0,30.0,-100.00,NW,314,2.0,9.0,92,0.00,,,0.00,0.000000,,2013-03-08 01:02:00,
2013-03-07 20:33:00,31.0,30.0,-100.00,NW,319,2.0,5.0,96,0.00,,,0.00,0.000000,,2013-03-08 01:33:00,
2013-03-07 20:42:00,31.0,30.0,-100.00,NW,319,2.0,5.0,96,0.00,,,0.00,0.000000,,2013-03-08 01:42:00,
2013-03-07 20:52:00,31.0,30.0,-100.00,NW,319,2.0,5.0,96,0.00,,,0.00,0.000000,,2013-03-08 01:52:00,
2013-03-07 21:02:00,31.0,30.0,-100.00,NW,319,2.0,5.0,96,0.00,,,0.00,0.000000,,2013-03-08 02:02:00,
2013-03-07 21:32:00,31.0,30.0,-100.00,NW,311,1.0,4.0,96,0.00,,,0.00,0.000000,,2013-03-08 02:32:00,
2013-03-07 21:42:00,31.0,30.0,-100.00,NW,311,1.0,4.0,96,0.00,,,0.00,0.000000,,2013-03-08 02:42:00,
2013-03-07 21:53:00,31.0,30.0,-100.00,NW,311,1.0,4.0,96,0.00,,,0.00,0.000000,,2013-03-08 02:53:00,
2013-03-07 22:02:00,31.0,30.0,-100.00,NW,311,1.0,4.0,96,0.00,,,0.00,0.000000,,2013-03-08 03:02:00,
2013-03-07 22:33:00,31.0,30.0,-100.00,NW,315,2.0,7.0,97,0.00,,,0.00,0.000000,,2013-03-08 03:33:00,
2013-03-07 22:43:00,31.0,30.0,-100.00,NW,315,2.0,7.0,97,0.00,,,0.00,0.000000,,2013-03-08 03:43:00,
2013-03-07 22:53:00,31.0,30.0,-100.00,NW,315,2.0,7.0,97,0.00,,,0.00,0.000000,,2013-03-08 03:53:00,
2013-03-07 23:02:00,31.0,30.0,-100.00,NW,315,2.0,7.0,97,0.00,,,0.00,0.000000,,2013-03-08 04:02:00,
2013-03-07 23:32:00,30.0,29.0,-100.00,NW,309,1.0,7.0,96,0.00,,,0.00,0.000000,,2013-03-08 04:32:00,
2013-03-07 23:42:00,30.0,29.0,-100.00,NW,309,1.0,7.0,96,0.00,,,0.00,0.000000,,2013-03-08 04:42:00,
2013-03-07 23:52:00,30.0,29.0,-100.00,NW,309,1.0,7.0,96,0.00,,,0.00,0.000000,,2013-03-08 04:52:00,